sensor_id;sensor_type;location;lat;lon;timestamp;pressure;altitude;pressure_sealevel;temperature;humidity
75933;BME280;64803;52.356;5.310;2023-02-18T00:01:14;102502.22;;;9.24;100.00
75933;BME280;64803;52.356;5.310;2023-02-18T00:03:41;102510.41;;;9.23;100.00
75933;BME280;64803;52.356;5.310;2023-02-18T00:06:39;102501.41;;;9.24;100.00
75933;BME280;64803;52.356;5.310;2023-02-18T00:09:04;102501.00;;;9.28;100.00
75933;BME280;64803;52.356;5.310;2023-02-18T00:11:33;102518.69;;;9.31;100.00
75933;BME280;64803;52.356;5.310;2023-02-18T00:14:01;102508.78;;;9.31;100.00
75933;BME280;64803;52.356;5.310;2023-02-18T00:16:28;102507.94;;;9.31;100.00
75933;BME280;64803;52.356;5.310;2023-02-18T00:18:57;102510.50;;;9.32;100.00
75933;BME280;64803;52.356;5.310;2023-02-18T00:21:23;102498.78;;;9.33;100.00
75933;BME280;64803;52.356;5.310;2023-02-18T00:23:50;102483.72;;;9.21;100.00
75933;BME280;64803;52.356;5.310;2023-02-18T00:26:18;102501.91;;;9.38;100.00
75933;BME280;64803;52.356;5.310;2023-02-18T00:28:44;102507.16;;;9.40;100.00
75933;BME280;64803;52.356;5.310;2023-02-18T00:31:15;102502.66;;;9.40;100.00
75933;BME280;64803;52.356;5.310;2023-02-18T00:33:41;102484.00;;;9.39;100.00
75933;BME280;64803;52.356;5.310;2023-02-18T00:36:11;102478.19;;;9.34;100.00
75933;BME280;64803;52.356;5.310;2023-02-18T00:38:38;102493.38;;;9.44;100.00
75933;BME280;64803;52.356;5.310;2023-02-18T00:41:04;102486.06;;;9.46;100.00
75933;BME280;64803;52.356;5.310;2023-02-18T00:43:30;102476.56;;;9.42;100.00
75933;BME280;64803;52.356;5.310;2023-02-18T00:45:56;102468.50;;;9.42;100.00
75933;BME280;64803;52.356;5.310;2023-02-18T00:48:22;102470.19;;;9.43;100.00
75933;BME280;64803;52.356;5.310;2023-02-18T00:50:48;102471.19;;;9.42;100.00
75933;BME280;64803;52.356;5.310;2023-02-18T00:53:14;102473.88;;;9.42;100.00
75933;BME280;64803;52.356;5.310;2023-02-18T00:55:42;102467.66;;;9.42;100.00
75933;BME280;64803;52.356;5.310;2023-02-18T00:58:09;102471.19;;;9.42;100.00
75933;BME280;64803;52.356;5.310;2023-02-18T01:00:36;102458.66;;;9.43;100.00
75933;BME280;64803;52.356;5.310;2023-02-18T01:03:03;102465.84;;;9.42;100.00
75933;BME280;64803;52.356;5.310;2023-02-18T01:05:31;102465.84;;;9.42;100.00
75933;BME280;64803;52.356;5.310;2023-02-18T01:07:57;102479.25;;;9.42;100.00
75933;BME280;64803;52.356;5.310;2023-02-18T01:10:23;102456.78;;;9.43;100.00
75933;BME280;64803;52.356;5.310;2023-02-18T01:12:49;102450.75;;;9.41;100.00
75933;BME280;64803;52.356;5.310;2023-02-18T01:15:15;102461.47;;;9.41;100.00
75933;BME280;64803;52.356;5.310;2023-02-18T01:17:42;102466.56;;;9.44;100.00
75933;BME280;64803;52.356;5.310;2023-02-18T01:20:10;102456.56;;;9.46;100.00
75933;BME280;64803;52.356;5.310;2023-02-18T01:22:37;102450.47;;;9.44;100.00
75933;BME280;64803;52.356;5.310;2023-02-18T01:25:08;102456.94;;;9.42;100.00
75933;BME280;64803;52.356;5.310;2023-02-18T01:27:34;102439.75;;;9.44;100.00
75933;BME280;64803;52.356;5.310;2023-02-18T01:30:01;102436.88;;;9.36;100.00
75933;BME280;64803;52.356;5.310;2023-02-18T01:32:27;102449.03;;;9.40;100.00
75933;BME280;64803;52.356;5.310;2023-02-18T01:34:53;102449.88;;;9.41;100.00
75933;BME280;64803;52.356;5.310;2023-02-18T01:37:19;102456.09;;;9.41;100.00
75933;BME280;64803;52.356;5.310;2023-02-18T01:39:45;102444.66;;;9.39;100.00
75933;BME280;64803;52.356;5.310;2023-02-18T01:42:20;102441.84;;;9.41;100.00
75933;BME280;64803;52.356;5.310;2023-02-18T01:44:48;102446.63;;;9.37;100.00
75933;BME280;64803;52.356;5.310;2023-02-18T01:47:15;102424.44;;;9.35;100.00
75933;BME280;64803;52.356;5.310;2023-02-18T01:49:44;102410.59;;;9.30;100.00
75933;BME280;64803;52.356;5.310;2023-02-18T01:52:16;102427.13;;;9.35;100.00
75933;BME280;64803;52.356;5.310;2023-02-18T01:54:52;102413.72;;;9.35;100.00
75933;BME280;64803;52.356;5.310;2023-02-18T01:57:26;102415.53;;;9.35;100.00
75933;BME280;64803;52.356;5.310;2023-02-18T01:59:57;102414.31;;;9.39;100.00
75933;BME280;64803;52.356;5.310;2023-02-18T02:02:26;102406.41;;;9.37;100.00
75933;BME280;64803;52.356;5.310;2023-02-18T02:04:53;102355.13;;;9.10;100.00
75933;BME280;64803;52.356;5.310;2023-02-18T02:07:21;102395.22;;;9.32;100.00
75933;BME280;64803;52.356;5.310;2023-02-18T02:09:50;102351.22;;;9.14;100.00
75933;BME280;64803;52.356;5.310;2023-02-18T02:17:57;102345.25;;;9.31;100.00
75933;BME280;64803;52.356;5.310;2023-02-18T02:23:48;102347.25;;;9.29;100.00
75933;BME280;64803;52.356;5.310;2023-02-18T02:29:27;102333.84;;;9.29;100.00
75933;BME280;64803;52.356;5.310;2023-02-18T02:35:10;102323.81;;;9.31;100.00
75933;BME280;64803;52.356;5.310;2023-02-18T02:37:54;102310.41;;;9.31;100.00
75933;BME280;64803;52.356;5.310;2023-02-18T02:40:55;102307.03;;;9.29;100.00
75933;BME280;64803;52.356;5.310;2023-02-18T02:43:36;102301.66;;;9.29;100.00
75933;BME280;64803;52.356;5.310;2023-02-18T02:46:31;102289.38;;;9.27;100.00
75933;BME280;64803;52.356;5.310;2023-02-18T02:49:32;102285.00;;;9.26;100.00
75933;BME280;64803;52.356;5.310;2023-02-18T02:52:06;102281.63;;;9.24;100.00
75933;BME280;64803;52.356;5.310;2023-02-18T02:54:34;102285.84;;;9.26;100.00
75933;BME280;64803;52.356;5.310;2023-02-18T03:00:23;102282.44;;;9.24;100.00
75933;BME280;64803;52.356;5.310;2023-02-18T03:03:26;102283.72;;;9.20;100.00
75933;BME280;64803;52.356;5.310;2023-02-18T03:06:14;102271.56;;;9.16;100.00
75933;BME280;64803;52.356;5.310;2023-02-18T03:11:36;102267.19;;;9.15;100.00
75933;BME280;64803;52.356;5.310;2023-02-18T03:14:27;102261.81;;;9.15;100.00
75933;BME280;64803;52.356;5.310;2023-02-18T03:17:09;102255.59;;;9.15;100.00
75933;BME280;64803;52.356;5.310;2023-02-18T03:19:41;102250.09;;;9.16;100.00
75933;BME280;64803;52.356;5.310;2023-02-18T03:24:40;102233.03;;;9.17;100.00
75933;BME280;64803;52.356;5.310;2023-02-18T03:27:32;102233.03;;;9.17;100.00
75933;BME280;64803;52.356;5.310;2023-02-18T03:32:48;102195.50;;;9.17;100.00
75933;BME280;64803;52.356;5.310;2023-02-18T03:35:18;102204.13;;;9.21;100.00
75933;BME280;64803;52.356;5.310;2023-02-18T03:37:49;102186.50;;;9.18;100.00
75933;BME280;64803;52.356;5.310;2023-02-18T03:40:17;102183.00;;;9.27;100.00
75933;BME280;64803;52.356;5.310;2023-02-18T03:42:44;102181.44;;;9.25;100.00
75933;BME280;64803;52.356;5.310;2023-02-18T03:45:10;102144.44;;;9.09;100.00
75933;BME280;64803;52.356;5.310;2023-02-18T03:47:36;102171.47;;;9.36;100.00
75933;BME280;64803;52.356;5.310;2023-02-18T03:50:03;102158.06;;;9.36;100.00
75933;BME280;64803;52.356;5.310;2023-02-18T03:52:30;102158.59;;;9.40;100.00
75933;BME280;64803;52.356;5.310;2023-02-18T03:54:56;102170.91;;;9.42;100.00
75933;BME280;64803;52.356;5.310;2023-02-18T03:57:22;102165.97;;;9.47;100.00
75933;BME280;64803;52.356;5.310;2023-02-18T03:59:48;102142.56;;;9.49;100.00
75933;BME280;64803;52.356;5.310;2023-02-18T04:02:14;102140.59;;;9.51;100.00
75933;BME280;64803;52.356;5.310;2023-02-18T04:04:40;102148.63;;;9.51;100.00
75933;BME280;64803;52.356;5.310;2023-02-18T04:07:06;102154.00;;;9.51;100.00
75933;BME280;64803;52.356;5.310;2023-02-18T04:09:32;102148.47;;;9.53;100.00
75933;BME280;64803;52.356;5.310;2023-02-18T04:11:58;102140.16;;;9.56;100.00
75933;BME280;64803;52.356;5.310;2023-02-18T04:14:24;102129.84;;;9.51;100.00
75933;BME280;64803;52.356;5.310;2023-02-18T04:16:50;102141.00;;;9.56;100.00
75933;BME280;64803;52.356;5.310;2023-02-18T04:19:16;102137.31;;;9.57;100.00
75933;BME280;64803;52.356;5.310;2023-02-18T04:21:42;102136.34;;;9.58;100.00
75933;BME280;64803;52.356;5.310;2023-02-18T04:24:09;102130.13;;;9.58;100.00
75933;BME280;64803;52.356;5.310;2023-02-18T04:26:35;102130.13;;;9.58;100.00
75933;BME280;64803;52.356;5.310;2023-02-18T04:29:02;102123.91;;;9.57;100.00
75933;BME280;64803;52.356;5.310;2023-02-18T04:31:28;102130.56;;;9.53;100.00
75933;BME280;64803;52.356;5.310;2023-02-18T04:33:54;102122.22;;;9.56;100.00
75933;BME280;64803;52.356;5.310;2023-02-18T04:36:20;102114.34;;;9.55;100.00
75933;BME280;64803;52.356;5.310;2023-02-18T04:38:46;102112.75;;;9.52;100.00
75933;BME280;64803;52.356;5.310;2023-02-18T04:41:12;102095.72;;;9.53;100.00
75933;BME280;64803;52.356;5.310;2023-02-18T04:43:38;102091.31;;;9.52;100.00
75933;BME280;64803;52.356;5.310;2023-02-18T04:46:04;102091.16;;;9.54;100.00
75933;BME280;64803;52.356;5.310;2023-02-18T04:48:30;102089.78;;;9.50;100.00
75933;BME280;64803;52.356;5.310;2023-02-18T04:50:56;102098.38;;;9.53;100.00
75933;BME280;64803;52.356;5.310;2023-02-18T04:53:22;102084.69;;;9.56;100.00
75933;BME280;64803;52.356;5.310;2023-02-18T04:55:49;102089.75;;;9.59;100.00
75933;BME280;64803;52.356;5.310;2023-02-18T04:58:17;102081.44;;;9.53;100.00
75933;BME280;64803;52.356;5.310;2023-02-18T05:00:43;102068.03;;;9.43;100.00
75933;BME280;64803;52.356;5.310;2023-02-18T05:03:09;102089.75;;;9.59;100.00
75933;BME280;64803;52.356;5.310;2023-02-18T05:05:35;102075.66;;;9.57;100.00
75933;BME280;64803;52.356;5.310;2023-02-18T05:08:02;102078.22;;;9.59;100.00
75933;BME280;64803;52.356;5.310;2023-02-18T05:10:29;102075.66;;;9.57;100.00
75933;BME280;64803;52.356;5.310;2023-02-18T05:12:55;102046.88;;;9.40;100.00
75933;BME280;64803;52.356;5.310;2023-02-18T05:15:21;102079.03;;;9.59;100.00
75933;BME280;64803;52.356;5.310;2023-02-18T05:17:47;102047.72;;;9.60;100.00
75933;BME280;64803;52.356;5.310;2023-02-18T05:20:13;102066.34;;;9.61;100.00
75933;BME280;64803;52.356;5.310;2023-02-18T05:22:39;102054.34;;;9.65;100.00
75933;BME280;64803;52.356;5.310;2023-02-18T05:25:06;102057.88;;;9.66;100.00
75933;BME280;64803;52.356;5.310;2023-02-18T05:27:32;102050.50;;;9.68;100.00
75933;BME280;64803;52.356;5.310;2023-02-18T05:29:58;102036.84;;;9.71;100.00
75933;BME280;64803;52.356;5.310;2023-02-18T05:32:24;102039.78;;;9.77;100.00
75933;BME280;64803;52.356;5.310;2023-02-18T05:34:50;102035.84;;;9.81;100.00
75933;BME280;64803;52.356;5.310;2023-02-18T05:37:16;102029.03;;;9.87;100.00
75933;BME280;64803;52.356;5.310;2023-02-18T05:39:44;102015.75;;;9.95;100.00
75933;BME280;64803;52.356;5.310;2023-02-18T05:42:10;102023.34;;;9.99;100.00
75933;BME280;64803;52.356;5.310;2023-02-18T05:44:36;101965.28;;;9.62;100.00
75933;BME280;64803;52.356;5.310;2023-02-18T05:47:07;102026.44;;;10.14;100.00
75933;BME280;64803;52.356;5.310;2023-02-18T05:49:34;102021.94;;;10.14;100.00
75933;BME280;64803;52.356;5.310;2023-02-18T05:52:00;101955.56;;;9.97;100.00
75933;BME280;64803;52.356;5.310;2023-02-18T05:54:27;102020.47;;;10.30;100.00
75933;BME280;64803;52.356;5.310;2023-02-18T05:56:53;102021.00;;;10.33;100.00
75933;BME280;64803;52.356;5.310;2023-02-18T05:59:20;102003.09;;;10.24;100.00
75933;BME280;64803;52.356;5.310;2023-02-18T06:01:46;102032.31;;;10.37;100.00
75933;BME280;64803;52.356;5.310;2023-02-18T06:04:13;102033.00;;;10.39;100.00
75933;BME280;64803;52.356;5.310;2023-02-18T06:06:39;102037.53;;;10.38;100.00
75933;BME280;64803;52.356;5.310;2023-02-18T06:09:06;102035.56;;;10.31;100.00
75933;BME280;64803;52.356;5.310;2023-02-18T06:11:32;102023.69;;;10.33;100.00
75933;BME280;64803;52.356;5.310;2023-02-18T06:13:59;102029.75;;;10.35;100.00
75933;BME280;64803;52.356;5.310;2023-02-18T06:16:25;102035.97;;;10.36;100.00
75933;BME280;64803;52.356;5.310;2023-02-18T06:18:51;102033.56;;;10.33;100.00
75933;BME280;64803;52.356;5.310;2023-02-18T06:21:17;102033.56;;;10.33;100.00
75933;BME280;64803;52.356;5.310;2023-02-18T06:23:43;102042.63;;;10.32;100.00
75933;BME280;64803;52.356;5.310;2023-02-18T06:26:09;102036.25;;;10.33;100.00
75933;BME280;64803;52.356;5.310;2023-02-18T06:28:36;102041.63;;;10.33;100.00
75933;BME280;64803;52.356;5.310;2023-02-18T06:31:02;101991.97;;;10.09;100.00
75933;BME280;64803;52.356;5.310;2023-02-18T06:33:28;102021.88;;;10.34;100.00
75933;BME280;64803;52.356;5.310;2023-02-18T06:36:13;102027.31;;;10.42;100.00
75933;BME280;64803;52.356;5.310;2023-02-18T06:38:40;102041.16;;;10.47;100.00
75933;BME280;64803;52.356;5.310;2023-02-18T06:41:07;102015.69;;;10.51;100.00
75933;BME280;64803;52.356;5.310;2023-02-18T06:43:34;102027.72;;;10.47;100.00
75933;BME280;64803;52.356;5.310;2023-02-18T06:46:00;102025.03;;;10.47;100.00
75933;BME280;64803;52.356;5.310;2023-02-18T06:48:30;102012.41;;;10.57;100.00
75933;BME280;64803;52.356;5.310;2023-02-18T06:50:56;102011.03;;;10.53;100.00
75933;BME280;64803;52.356;5.310;2023-02-18T06:53:22;101990.75;;;10.41;100.00
75933;BME280;64803;52.356;5.310;2023-02-18T06:55:48;102007.53;;;10.43;100.00
75933;BME280;64803;52.356;5.310;2023-02-18T06:58:14;102006.53;;;10.44;100.00
75933;BME280;64803;52.356;5.310;2023-02-18T07:00:41;101986.66;;;10.37;100.00
75933;BME280;64803;52.356;5.310;2023-02-18T07:03:07;101990.63;;;10.33;100.00
75933;BME280;64803;52.356;5.310;2023-02-18T07:05:34;102007.13;;;10.38;100.00
75933;BME280;64803;52.356;5.310;2023-02-18T07:08:00;101964.56;;;10.15;100.00
75933;BME280;64803;52.356;5.310;2023-02-18T07:10:26;101998.09;;;10.39;100.00
75933;BME280;64803;52.356;5.310;2023-02-18T07:12:52;101984.28;;;10.34;100.00
75933;BME280;64803;52.356;5.310;2023-02-18T07:15:18;102004.91;;;10.33;100.00
75933;BME280;64803;52.356;5.310;2023-02-18T07:17:50;101998.69;;;10.33;100.00
75933;BME280;64803;52.356;5.310;2023-02-18T07:20:16;101984.84;;;10.28;100.00
75933;BME280;64803;52.356;5.310;2023-02-18T07:22:42;101981.06;;;10.20;100.00
75933;BME280;64803;52.356;5.310;2023-02-18T07:25:08;101989.13;;;10.20;100.00
75933;BME280;64803;52.356;5.310;2023-02-18T07:27:34;101975.16;;;10.17;100.00
75933;BME280;64803;52.356;5.310;2023-02-18T07:30:00;101975.75;;;10.11;100.00
75933;BME280;64803;52.356;5.310;2023-02-18T07:32:26;101974.19;;;10.08;100.00
75933;BME280;64803;52.356;5.310;2023-02-18T07:34:52;101974.47;;;10.05;100.00
75933;BME280;64803;52.356;5.310;2023-02-18T07:37:19;101992.56;;;10.03;100.00
75933;BME280;64803;52.356;5.310;2023-02-18T07:39:45;102011.50;;;10.02;100.00
75933;BME280;64803;52.356;5.310;2023-02-18T07:42:12;102005.25;;;10.01;100.00
75933;BME280;64803;52.356;5.310;2023-02-18T07:44:39;102006.28;;;10.00;100.00
75933;BME280;64803;52.356;5.310;2023-02-18T07:47:06;102001.72;;;10.01;100.00
75933;BME280;64803;52.356;5.310;2023-02-18T07:49:33;101987.81;;;9.78;100.00
75933;BME280;64803;52.356;5.310;2023-02-18T07:51:59;102000.34;;;9.97;100.00
75933;BME280;64803;52.356;5.310;2023-02-18T07:54:25;102011.91;;;9.97;100.00
75933;BME280;64803;52.356;5.310;2023-02-18T07:56:52;102014.31;;;10.00;100.00
75933;BME280;64803;52.356;5.310;2023-02-18T07:59:19;102032.09;;;10.01;100.00
75933;BME280;64803;52.356;5.310;2023-02-18T08:01:45;102024.19;;;10.00;100.00
75933;BME280;64803;52.356;5.310;2023-02-18T08:04:11;102010.06;;;9.98;100.00
75933;BME280;64803;52.356;5.310;2023-02-18T08:06:40;102006.94;;;10.02;100.00
75933;BME280;64803;52.356;5.310;2023-02-18T08:09:07;102014.03;;;10.03;100.00
75933;BME280;64803;52.356;5.310;2023-02-18T08:11:33;102006.81;;;10.04;100.00
75933;BME280;64803;52.356;5.310;2023-02-18T08:14:00;102027.88;;;10.08;100.00
75933;BME280;64803;52.356;5.310;2023-02-18T08:16:26;102029.88;;;9.97;100.00
75933;BME280;64803;52.356;5.310;2023-02-18T08:18:53;102044.72;;;9.82;100.00
75933;BME280;64803;52.356;5.310;2023-02-18T08:21:21;102066.47;;;9.69;100.00
75933;BME280;64803;52.356;5.310;2023-02-18T08:23:48;102019.22;;;9.49;100.00
75933;BME280;64803;52.356;5.310;2023-02-18T08:26:15;102031.19;;;9.45;100.00
75933;BME280;64803;52.356;5.310;2023-02-18T08:28:42;102039.53;;;9.42;100.00
75933;BME280;64803;52.356;5.310;2023-02-18T08:31:15;102038.69;;;9.42;100.00
75933;BME280;64803;52.356;5.310;2023-02-18T08:33:41;102037.28;;;9.38;100.00
75933;BME280;64803;52.356;5.310;2023-02-18T08:36:08;102021.06;;;9.39;100.00
75933;BME280;64803;52.356;5.310;2023-02-18T08:38:35;102028.94;;;9.41;100.00
75933;BME280;64803;52.356;5.310;2023-02-18T08:41:03;102034.16;;;9.42;100.00
75933;BME280;64803;52.356;5.310;2023-02-18T08:43:29;102032.19;;;9.44;100.00
75933;BME280;64803;52.356;5.310;2023-02-18T08:45:57;102038.69;;;9.51;100.00
75933;BME280;64803;52.356;5.310;2023-02-18T08:48:23;102042.78;;;9.55;100.00
75933;BME280;64803;52.356;5.310;2023-02-18T08:50:49;101979.44;;;9.35;100.00
75933;BME280;64803;52.356;5.310;2023-02-18T08:53:16;102031.06;;;9.66;100.00
75933;BME280;64803;52.356;5.310;2023-02-18T08:55:43;102032.28;;;9.71;100.00
75933;BME280;64803;52.356;5.310;2023-02-18T08:58:09;102039.06;;;9.75;100.00
75933;BME280;64803;52.356;5.310;2023-02-18T09:00:36;102044.16;;;9.88;100.00
75933;BME280;64803;52.356;5.310;2023-02-18T09:03:03;102023.53;;;9.88;100.00
75933;BME280;64803;52.356;5.310;2023-02-18T09:05:29;102032.56;;;9.87;100.00
75933;BME280;64803;52.356;5.310;2023-02-18T09:07:55;102038.34;;;9.92;100.00
75933;BME280;64803;52.356;5.310;2023-02-18T09:10:21;102039.44;;;9.99;100.00
75933;BME280;64803;52.356;5.310;2023-02-18T09:12:48;102042.72;;;9.93;100.00
75933;BME280;64803;52.356;5.310;2023-02-18T09:15:14;102033.56;;;9.77;100.00
75933;BME280;64803;52.356;5.310;2023-02-18T09:17:40;102058.38;;;9.98;100.00
75933;BME280;64803;52.356;5.310;2023-02-18T09:20:07;102047.25;;;9.93;100.00
75933;BME280;64803;52.356;5.310;2023-02-18T09:22:33;102015.94;;;9.74;100.00
75933;BME280;64803;52.356;5.310;2023-02-18T09:24:59;102051.19;;;9.98;100.00
75933;BME280;64803;52.356;5.310;2023-02-18T09:27:25;102058.22;;;9.99;100.00
75933;BME280;64803;52.356;5.310;2023-02-18T09:29:51;102059.09;;;10.00;100.00
75933;BME280;64803;52.356;5.310;2023-02-18T09:32:17;102064.00;;;10.04;100.00
75933;BME280;64803;52.356;5.310;2023-02-18T09:34:44;102047.66;;;9.98;100.00
75933;BME280;64803;52.356;5.310;2023-02-18T09:37:10;102064.31;;;10.01;100.00
75933;BME280;64803;52.356;5.310;2023-02-18T09:39:36;102059.06;;;10.09;100.00
75933;BME280;64803;52.356;5.310;2023-02-18T09:42:07;102060.78;;;10.10;100.00
75933;BME280;64803;52.356;5.310;2023-02-18T09:44:39;102067.13;;;10.09;100.00
75933;BME280;64803;52.356;5.310;2023-02-18T09:47:14;102053.00;;;10.07;100.00
75933;BME280;64803;52.356;5.310;2023-02-18T09:49:58;102069.09;;;10.07;100.00
75933;BME280;64803;52.356;5.310;2023-02-18T09:52:30;102076.75;;;10.12;100.00
75933;BME280;64803;52.356;5.310;2023-02-18T09:54:57;102068.53;;;10.13;100.00
75933;BME280;64803;52.356;5.310;2023-02-18T09:57:38;102079.56;;;10.10;100.00
75933;BME280;64803;52.356;5.310;2023-02-18T10:00:12;102046.38;;;10.11;100.00
75933;BME280;64803;52.356;5.310;2023-02-18T10:02:56;102077.56;;;10.22;100.00
75933;BME280;64803;52.356;5.310;2023-02-18T10:05:23;102081.75;;;10.34;100.00
75933;BME280;64803;52.356;5.310;2023-02-18T10:07:53;102064.53;;;10.37;100.00
75933;BME280;64803;52.356;5.310;2023-02-18T10:10:42;102085.28;;;10.44;100.00
75933;BME280;64803;52.356;5.310;2023-02-18T10:13:14;102068.41;;;10.52;100.00
75933;BME280;64803;52.356;5.310;2023-02-18T10:15:41;102071.09;;;10.52;100.00
75933;BME280;64803;52.356;5.310;2023-02-18T10:20:57;102078.81;;;10.64;100.00
75933;BME280;64803;52.356;5.310;2023-02-18T10:23:24;102084.44;;;10.71;100.00
75933;BME280;64803;52.356;5.310;2023-02-18T10:25:52;102094.84;;;10.83;100.00
75933;BME280;64803;52.356;5.310;2023-02-18T10:28:22;102106.13;;;10.87;100.00
75933;BME280;64803;52.356;5.310;2023-02-18T10:30:58;102101.06;;;10.84;100.00
75933;BME280;64803;52.356;5.310;2023-02-18T10:36:15;102104.25;;;10.97;100.00
75933;BME280;64803;52.356;5.310;2023-02-18T10:47:38;102114.81;;;11.08;100.00
75933;BME280;64803;52.356;5.310;2023-02-18T10:50:37;102098.66;;;11.08;100.00
75933;BME280;64803;52.356;5.310;2023-02-18T10:53:11;102112.38;;;11.32;100.00
75933;BME280;64803;52.356;5.310;2023-02-18T10:55:44;102116.78;;;11.33;100.00
75933;BME280;64803;52.356;5.310;2023-02-18T10:58:34;102102.38;;;11.42;100.00
75933;BME280;64803;52.356;5.310;2023-02-18T11:01:03;102093.56;;;11.50;100.00
75933;BME280;64803;52.356;5.310;2023-02-18T11:03:43;102114.78;;;11.53;100.00
75933;BME280;64803;52.356;5.310;2023-02-18T11:06:38;102123.13;;;11.32;100.00
75933;BME280;64803;52.356;5.310;2023-02-18T11:09:05;102112.06;;;11.35;100.00
75933;BME280;64803;52.356;5.310;2023-02-18T11:11:38;102103.00;;;11.36;100.00
75933;BME280;64803;52.356;5.310;2023-02-18T11:14:07;102105.72;;;11.36;100.00
75933;BME280;64803;52.356;5.310;2023-02-18T11:16:42;102110.06;;;11.37;100.00
75933;BME280;64803;52.356;5.310;2023-02-18T11:19:34;102109.53;;;11.33;100.00
75933;BME280;64803;52.356;5.310;2023-02-18T11:22:31;102110.84;;;11.29;100.00
75933;BME280;64803;52.356;5.310;2023-02-18T11:25:00;102110.69;;;11.31;100.00
75933;BME280;64803;52.356;5.310;2023-02-18T11:27:42;102122.28;;;11.31;100.00
75933;BME280;64803;52.356;5.310;2023-02-18T11:32:53;102123.06;;;11.24;100.00
75933;BME280;64803;52.356;5.310;2023-02-18T11:35:24;102116.22;;;11.29;100.00
75933;BME280;64803;52.356;5.310;2023-02-18T11:37:51;102111.91;;;11.19;100.00
75933;BME280;64803;52.356;5.310;2023-02-18T11:40:28;102115.16;;;11.22;100.00
75933;BME280;64803;52.356;5.310;2023-02-18T11:43:06;102132.22;;;11.31;100.00
75933;BME280;64803;52.356;5.310;2023-02-18T11:45:36;102112.06;;;11.35;100.00
75933;BME280;64803;52.356;5.310;2023-02-18T11:48:11;102115.16;;;11.40;100.00
75933;BME280;64803;52.356;5.310;2023-02-18T11:50:39;102122.78;;;11.45;100.00
75933;BME280;64803;52.356;5.310;2023-02-18T11:53:27;102125.31;;;11.64;100.00
75933;BME280;64803;52.356;5.310;2023-02-18T11:55:56;102126.63;;;11.77;100.00
75933;BME280;64803;52.356;5.310;2023-02-18T11:58:23;102125.94;;;11.75;100.00
75933;BME280;64803;52.356;5.310;2023-02-18T12:00:50;102138.03;;;11.71;100.00
75933;BME280;64803;52.356;5.310;2023-02-18T12:03:36;102111.19;;;11.79;100.00
75933;BME280;64803;52.356;5.310;2023-02-18T12:06:11;102111.66;;;11.92;100.00
75933;BME280;64803;52.356;5.310;2023-02-18T12:08:48;102120.09;;;11.97;100.00
75933;BME280;64803;52.356;5.310;2023-02-18T12:11:30;102119.31;;;11.87;100.00
75933;BME280;64803;52.356;5.310;2023-02-18T12:13:58;102122.09;;;11.95;100.00
75933;BME280;64803;52.356;5.310;2023-02-18T12:22:05;102108.50;;;11.79;100.00
75933;BME280;64803;52.356;5.310;2023-02-18T12:27:20;102114.47;;;11.91;100.00
75933;BME280;64803;52.356;5.310;2023-02-18T12:38:53;102128.47;;;11.94;100.00
75933;BME280;64803;52.356;5.310;2023-02-18T12:55:26;102130.69;;;12.16;100.00
75933;BME280;64803;52.356;5.310;2023-02-18T12:58:07;102088.72;;;11.88;100.00
75933;BME280;64803;52.356;5.310;2023-02-18T13:12:20;102145.84;;;12.00;100.00
75933;BME280;64803;52.356;5.310;2023-02-18T13:15:16;102145.03;;;11.99;100.00
75933;BME280;64803;52.356;5.310;2023-02-18T13:17:44;102144.72;;;12.02;100.00
75933;BME280;64803;52.356;5.310;2023-02-18T13:20:22;102152.41;;;11.97;100.00
75933;BME280;64803;52.356;5.310;2023-02-18T13:22:51;102143.63;;;11.95;100.00
75933;BME280;64803;52.356;5.310;2023-02-18T13:25:18;102143.97;;;11.92;100.00
75933;BME280;64803;52.356;5.310;2023-02-18T13:30:33;102149.25;;;11.84;100.00
75933;BME280;64803;52.356;5.310;2023-02-18T13:33:13;102154.94;;;11.81;100.00
75933;BME280;64803;52.356;5.310;2023-02-18T13:35:56;102144.88;;;11.83;100.00
75933;BME280;64803;52.356;5.310;2023-02-18T13:38:49;102151.94;;;11.84;100.00
75933;BME280;64803;52.356;5.310;2023-02-18T13:41:19;102151.03;;;11.93;100.00
75933;BME280;64803;52.356;5.310;2023-02-18T13:43:46;102169.09;;;12.01;100.00
75933;BME280;64803;52.356;5.310;2023-02-18T13:46:17;102152.38;;;12.15;100.00
75933;BME280;64803;52.356;5.310;2023-02-18T13:48:51;102157.28;;;12.19;100.00
75933;BME280;64803;52.356;5.310;2023-02-18T13:51:30;102151.38;;;12.16;100.00
75933;BME280;64803;52.356;5.310;2023-02-18T13:54:03;102155.22;;;12.13;100.00
75933;BME280;64803;52.356;5.310;2023-02-18T13:56:32;102149.91;;;12.21;100.00
75933;BME280;64803;52.356;5.310;2023-02-18T13:59:08;102152.91;;;12.18;100.00
75933;BME280;64803;52.356;5.310;2023-02-18T14:01:37;102170.75;;;12.19;100.00
75933;BME280;64803;52.356;5.310;2023-02-18T14:23:57;102158.72;;;11.88;100.00
75933;BME280;64803;52.356;5.310;2023-02-18T14:31:16;102146.03;;;11.81;100.00
75933;BME280;64803;52.356;5.310;2023-02-18T14:36:28;102160.34;;;11.81;100.00
75933;BME280;64803;52.356;5.310;2023-02-18T14:39:23;102155.00;;;11.89;100.00
75933;BME280;64803;52.356;5.310;2023-02-18T14:44:48;102164.00;;;11.80;100.00
75933;BME280;64803;52.356;5.310;2023-02-18T14:50:11;102164.78;;;11.73;100.00
75933;BME280;64803;52.356;5.310;2023-02-18T14:52:42;102168.63;;;11.70;100.00
75933;BME280;64803;52.356;5.310;2023-02-18T14:55:24;102162.13;;;11.63;100.00
75933;BME280;64803;52.356;5.310;2023-02-18T14:58:07;102175.03;;;11.69;100.00
75933;BME280;64803;52.356;5.310;2023-02-18T15:00:40;102166.25;;;11.67;100.00
75933;BME280;64803;52.356;5.310;2023-02-18T15:03:14;102174.16;;;11.69;100.00